Time;durP1;ratioP1;P1;durP2;ratioP2;P2;SDS_P1;SDS_P2;PMS_P1;PMS_P2;Temp;Humidity;BMP_temperature;BMP_pressure;BME280_temperature;BME280_humidity;BME280_pressure;Samples;Min_cycle;Max_cycle;Signal;HPM_P1;HPM_P2
2021/08/22 00:00:54;;;;;;;23.75;20.58;;;18.80;99.90;;;;;;4874720;29;20128;-80
2021/08/22 00:03:19;;;;;;;25.27;21.55;;;18.80;99.90;;;;;;4859241;29;20069;-80
2021/08/22 00:05:45;;;;;;;27.63;21.70;;;18.80;99.90;;;;;;4860266;29;20065;-80
2021/08/22 00:08:12;;;;;;;23.95;20.45;;;18.80;99.90;;;;;;4860621;29;20523;-81
2021/08/22 00:10:38;;;;;;;25.67;21.15;;;18.70;99.90;;;;;;4860656;29;20061;-81
2021/08/22 00:13:04;;;;;;;26.73;21.48;;;18.70;99.90;;;;;;4860389;29;20049;-81
2021/08/22 00:15:30;;;;;;;27.88;21.88;;;18.70;99.90;;;;;;4849481;29;20606;-81
2021/08/22 00:17:59;;;;;;;28.05;21.27;;;18.70;99.90;;;;;;4851234;29;20176;-80
2021/08/22 00:20:25;;;;;;;26.05;20.60;;;18.70;99.90;;;;;;4852488;29;20455;-80
2021/08/22 00:22:51;;;;;;;25.85;21.02;;;18.70;99.90;;;;;;4873726;29;20045;-80
2021/08/22 00:25:16;;;;;;;25.52;20.60;;;18.70;99.90;;;;;;4860061;29;20474;-80
2021/08/22 00:27:45;;;;;;;24.90;21.25;;;18.80;99.90;;;;;;4855868;29;20054;-80
2021/08/22 00:30:11;;;;;;;25.02;20.95;;;18.70;99.90;;;;;;4855846;29;20081;-80
2021/08/22 00:32:37;;;;;;;25.95;20.15;;;18.70;99.90;;;;;;4849414;29;20042;-80
2021/08/22 00:35:03;;;;;;;25.75;20.73;;;18.70;99.90;;;;;;4857934;29;20678;-80
2021/08/22 00:37:29;;;;;;;27.40;21.10;;;18.60;99.90;;;;;;4843303;29;20041;-80
2021/08/22 00:39:57;;;;;;;28.45;20.65;;;18.70;99.90;;;;;;4860322;29;20074;-80
2021/08/22 00:42:31;;;;;;;22.63;19.15;;;18.60;99.90;;;;;;4874243;29;20072;-80
2021/08/22 00:45:06;;;;;;;25.25;20.73;;;18.60;99.90;;;;;;4858635;29;20037;-81
2021/08/22 00:47:39;;;;;;;24.25;19.80;;;18.60;99.90;;;;;;4859244;29;20398;-81
2021/08/22 00:50:06;;;;;;;27.60;21.17;;;18.90;99.90;;;;;;4856016;29;20045;-80
2021/08/22 00:52:33;;;;;;;25.17;20.55;;;18.60;99.90;;;;;;4860474;29;20049;-80
2021/08/22 00:55:06;;;;;;;25.52;20.70;;;18.60;99.90;;;;;;4872296;29;20068;-80
2021/08/22 00:57:33;;;;;;;27.83;20.23;;;18.60;99.90;;;;;;4857708;29;20121;-80
2021/08/22 01:00:09;;;;;;;25.10;20.85;;;18.60;99.90;;;;;;4870333;29;20037;-80
2021/08/22 01:02:41;;;;;;;24.33;20.05;;;18.60;99.90;;;;;;4861117;29;20044;-80
2021/08/22 01:05:26;;;;;;;25.25;20.42;;;18.60;99.90;;;;;;4874004;29;20374;-80
2021/08/22 01:08:24;;;;;;;25.55;21.10;;;18.60;99.90;;;;;;4859347;29;20082;-80
2021/08/22 01:10:55;;;;;;;26.52;20.67;;;18.60;99.90;;;;;;4858311;29;20089;-80
2021/08/22 01:13:23;;;;;;;26.83;20.25;;;18.60;99.90;;;;;;4861520;29;20482;-80
2021/08/22 01:15:58;;;;;;;24.73;20.80;;;18.60;99.90;;;;;;4874461;29;20366;-80
2021/08/22 01:18:26;;;;;;;;;;;18.60;99.90;;;;;;4878909;29;20124;-80
2021/08/22 01:20:57;;;;;;;27.10;20.02;;;18.60;99.90;;;;;;4845025;29;19977;-80
2021/08/22 01:23:24;;;;;;;26.67;20.90;;;18.60;99.90;;;;;;4868666;29;20037;-81
2021/08/22 01:25:51;;;;;;;29.52;21.17;;;18.60;99.90;;;;;;4892729;29;20068;-80
2021/08/22 01:28:17;;;;;;;22.73;19.73;;;18.50;99.90;;;;;;4858452;29;20440;-81
2021/08/22 01:30:49;;;;;;;25.60;20.55;;;18.60;99.90;;;;;;4853538;29;20412;-81
2021/08/22 01:33:19;;;;;;;25.35;20.45;;;18.60;99.90;;;;;;4861634;29;20036;-81
2021/08/22 01:35:46;;;;;;;26.05;20.42;;;18.50;99.90;;;;;;4859985;29;20081;-81
2021/08/22 01:38:14;;;;;;;25.65;20.27;;;18.50;99.90;;;;;;4845993;29;20102;-81
2021/08/22 01:40:41;;;;;;;25.95;20.90;;;18.60;99.90;;;;;;4843115;29;20095;-81
2021/08/22 01:43:10;;;;;;;24.08;20.08;;;18.60;99.90;;;;;;4852641;29;20037;-81
2021/08/22 01:45:37;;;;;;;29.70;20.70;;;18.50;99.90;;;;;;4882129;29;20037;-81
2021/08/22 01:48:05;;;;;;;25.70;20.27;;;18.50;99.90;;;;;;4868551;29;20048;-81
2021/08/22 01:50:31;;;;;;;24.98;21.30;;;18.60;99.90;;;;;;4850229;29;20382;-80
2021/08/22 01:53:08;;;;;;;;;;;18.60;99.90;;;;;;4878612;29;20073;-81
2021/08/22 01:55:33;;;;;;;25.10;19.88;;;18.50;99.90;;;;;;4868110;29;19923;-81
2021/08/22 01:57:59;;;;;;;25.55;21.95;;;18.50;99.90;;;;;;4863924;29;20100;-81
2021/08/22 02:00:28;;;;;;;28.77;22.70;;;18.50;99.90;;;;;;4848476;29;20037;-81
2021/08/22 02:03:07;;;;;;;28.85;24.77;;;18.50;99.90;;;;;;4885978;29;20060;-81
2021/08/22 02:05:37;;;;;;;32.15;25.08;;;18.50;99.90;;;;;;4881395;29;20044;-80
2021/08/22 02:08:15;;;;;;;25.95;21.95;;;18.50;99.90;;;;;;4872241;29;20056;-81
2021/08/22 02:10:54;;;;;;;27.88;22.58;;;18.50;99.90;;;;;;4863359;29;20116;-81
2021/08/22 02:13:22;;;;;;;27.95;22.23;;;18.50;99.90;;;;;;4865077;29;20037;-81
2021/08/22 02:15:50;;;;;;;25.42;21.30;;;18.70;99.90;;;;;;4872288;29;20043;-81
2021/08/22 02:18:17;;;;;;;25.85;20.90;;;18.50;99.90;;;;;;4874075;29;20037;-81
2021/08/22 02:20:46;;;;;;;27.08;21.13;;;18.50;99.90;;;;;;4893290;29;20513;-81
2021/08/22 02:23:12;;;;;;;26.27;21.98;;;18.40;99.90;;;;;;4857015;29;20045;-81
2021/08/22 02:25:38;;;;;;;28.80;22.42;;;18.50;99.90;;;;;;4863997;29;20073;-81
2021/08/22 02:28:04;;;;;;;27.52;22.23;;;18.40;99.90;;;;;;4851720;29;20080;-81
2021/08/22 02:30:36;;;;;;;27.75;21.42;;;18.50;99.90;;;;;;4883064;29;20465;-81
2021/08/22 02:33:07;;;;;;;22.23;19.10;;;18.50;99.90;;;;;;4832646;29;20050;-81
2021/08/22 02:35:33;;;;;;;28.00;21.45;;;18.50;99.90;;;;;;4862331;29;20045;-80
2021/08/22 02:37:59;;;;;;;25.20;21.17;;;18.50;99.90;;;;;;4859864;29;20128;-81
2021/08/22 02:40:24;;;;;;;23.85;20.15;;;18.50;99.90;;;;;;4862264;29;20117;-81
2021/08/22 02:42:53;;;;;;;26.20;21.02;;;18.50;99.90;;;;;;4857044;29;20077;-80
2021/08/22 02:45:19;;;;;;;24.85;21.10;;;18.50;99.90;;;;;;4844926;29;20086;-80
2021/08/22 02:47:47;;;;;;;25.45;21.58;;;18.50;99.90;;;;;;4871926;29;20097;-81
2021/08/22 02:50:13;;;;;;;28.17;21.75;;;18.50;99.90;;;;;;4877964;29;20085;-81
2021/08/22 02:52:39;;;;;;;30.98;22.50;;;18.50;99.90;;;;;;4838409;29;20049;-81
2021/08/22 02:55:06;;;;;;;25.48;21.38;;;18.50;99.90;;;;;;4867706;29;20438;-81
2021/08/22 02:57:31;;;;;;;26.45;21.15;;;18.50;99.90;;;;;;4868617;29;20116;-81
2021/08/22 02:59:57;;;;;;;23.70;20.50;;;18.50;99.90;;;;;;4868583;29;20526;-81
2021/08/22 03:02:23;;;;;;;24.15;21.17;;;18.60;99.90;;;;;;4845262;29;20098;-81
2021/08/22 03:04:49;;;;;;;26.25;21.80;;;18.50;99.90;;;;;;4833063;29;20045;-81
2021/08/22 03:07:15;;;;;;;27.45;22.40;;;18.60;99.90;;;;;;4854902;29;20033;-81
2021/08/22 03:09:40;;;;;;;29.70;23.67;;;18.50;99.90;;;;;;4879124;29;20037;-81
2021/08/22 03:12:06;;;;;;;28.98;23.52;;;18.50;99.90;;;;;;4879771;29;20069;-81
2021/08/22 03:14:33;;;;;;;31.15;23.98;;;18.50;99.90;;;;;;4837165;29;20124;-81
2021/08/22 03:16:58;;;;;;;32.17;24.67;;;18.50;99.90;;;;;;4875385;29;20121;-81
2021/08/22 03:19:26;;;;;;;33.47;26.73;;;18.50;99.90;;;;;;4825891;29;20502;-81
2021/08/22 03:21:53;;;;;;;33.30;25.88;;;18.40;99.90;;;;;;4868049;29;20046;-81
2021/08/22 03:24:18;;;;;;;31.02;24.77;;;18.40;99.90;;;;;;4861334;29;20117;-81
2021/08/22 03:26:45;;;;;;;32.65;26.50;;;18.40;99.90;;;;;;4844528;29;20136;-81
2021/08/22 03:29:11;;;;;;;32.22;26.25;;;18.40;99.90;;;;;;4860104;29;20063;-81
2021/08/22 03:31:37;;;;;;;35.00;27.50;;;18.30;99.90;;;;;;4859600;29;20124;-81
2021/08/22 03:34:03;;;;;;;28.60;24.35;;;18.40;99.90;;;;;;4861042;29;20038;-81
2021/08/22 03:36:29;;;;;;;29.80;25.60;;;18.30;99.90;;;;;;4875931;29;20397;-81
2021/08/22 03:38:55;;;;;;;32.05;26.17;;;18.30;99.90;;;;;;4875506;29;20048;-81
2021/08/22 03:41:21;;;;;;;37.42;28.00;;;18.30;99.90;;;;;;4859810;29;20048;-82
2021/08/22 03:43:46;;;;;;;32.40;26.40;;;18.30;99.90;;;;;;4859875;29;20047;-81
2021/08/22 03:46:12;;;;;;;32.88;26.73;;;18.40;99.90;;;;;;4854654;29;20041;-81
2021/08/22 03:48:38;;;;;;;35.00;25.98;;;18.30;99.90;;;;;;4860751;29;20065;-82
2021/08/22 03:51:04;;;;;;;37.33;27.02;;;18.20;99.90;;;;;;4829488;29;20057;-82
2021/08/22 03:53:31;;;;;;;35.92;26.77;;;18.30;99.90;;;;;;4859085;29;20156;-81
2021/08/22 03:55:56;;;;;;;33.67;26.95;;;18.30;99.90;;;;;;4860818;29;20112;-81
2021/08/22 03:58:22;;;;;;;35.33;27.50;;;18.30;99.90;;;;;;4875273;29;20512;-82
2021/08/22 04:00:49;;;;;;;35.95;27.55;;;18.20;99.90;;;;;;4863190;29;20037;-81
2021/08/22 04:03:17;;;;;;;33.63;26.95;;;18.30;99.90;;;;;;4860984;29;20049;-81
2021/08/22 04:05:43;;;;;;;41.28;29.00;;;18.30;99.90;;;;;;4859661;29;20037;-81
2021/08/22 04:08:09;;;;;;;35.10;27.67;;;18.30;99.90;;;;;;4874854;29;20042;-81
2021/08/22 04:10:36;;;;;;;31.17;27.35;;;18.30;99.90;;;;;;4874322;29;20041;-81
2021/08/22 04:13:02;;;;;;;34.80;27.90;;;18.20;99.90;;;;;;4859633;29;20484;-81
2021/08/22 04:15:28;;;;;;;34.60;28.67;;;18.20;99.90;;;;;;4859872;29;20068;-81
2021/08/22 04:17:54;;;;;;;34.15;28.23;;;18.20;99.90;;;;;;4873096;29;20049;-81
2021/08/22 04:20:20;;;;;;;38.05;28.30;;;18.20;99.90;;;;;;4858848;29;20476;-81
2021/08/22 04:22:46;;;;;;;33.72;27.48;;;18.20;99.90;;;;;;4864758;29;20417;-81
2021/08/22 04:25:12;;;;;;;35.95;27.98;;;18.20;99.90;;;;;;4859317;29;20121;-81
2021/08/22 04:27:39;;;;;;;37.88;28.60;;;18.20;99.90;;;;;;4872842;29;20045;-81
2021/08/22 04:30:06;;;;;;;36.72;27.88;;;18.20;99.90;;;;;;4868760;29;20045;-81
2021/08/22 04:32:32;;;;;;;38.47;28.77;;;18.20;99.90;;;;;;4848402;29;20038;-81
2021/08/22 04:34:57;;;;;;;38.92;29.15;;;18.20;99.90;;;;;;4859225;29;20048;-81
2021/08/22 04:37:23;;;;;;;36.63;28.92;;;18.20;99.90;;;;;;4874397;29;20064;-81
2021/08/22 04:39:49;;;;;;;35.72;29.35;;;18.10;99.90;;;;;;4858877;29;20097;-81
2021/08/22 04:42:15;;;;;;;35.22;28.30;;;18.10;99.90;;;;;;4860377;29;20045;-81
2021/08/22 04:44:41;;;;;;;39.08;29.65;;;18.10;99.90;;;;;;4872752;29;20089;-81
2021/08/22 04:47:07;;;;;;;37.03;29.23;;;18.10;99.90;;;;;;4874245;29;20033;-81
2021/08/22 04:49:33;;;;;;;37.17;29.25;;;18.10;99.90;;;;;;4843444;29;20083;-80
2021/08/22 04:51:59;;;;;;;34.20;29.20;;;18.10;99.90;;;;;;4872194;29;20165;-81
2021/08/22 04:54:25;;;;;;;35.40;28.85;;;18.10;99.90;;;;;;4859011;29;20093;-81
2021/08/22 04:56:51;;;;;;;37.67;30.85;;;18.10;99.90;;;;;;4858769;29;20490;-81
2021/08/22 04:59:17;;;;;;;37.80;30.35;;;18.00;99.90;;;;;;4858990;29;20041;-80
2021/08/22 05:01:43;;;;;;;38.20;31.23;;;18.00;99.90;;;;;;4857604;29;20606;-80
2021/08/22 05:04:09;;;;;;;40.65;32.10;;;18.00;99.90;;;;;;4858639;29;20038;-80
2021/08/22 05:06:35;;;;;;;38.13;29.40;;;18.00;99.90;;;;;;4858943;29;20034;-81
2021/08/22 05:09:01;;;;;;;36.20;29.05;;;18.00;99.90;;;;;;4858591;29;20040;-80
2021/08/22 05:11:27;;;;;;;45.75;34.30;;;17.90;99.90;;;;;;4858900;29;20048;-80
2021/08/22 05:13:53;;;;;;;42.13;33.05;;;17.90;99.90;;;;;;4858321;29;20048;-81
2021/08/22 05:16:19;;;;;;;39.83;32.00;;;17.80;99.90;;;;;;4857011;29;20486;-81
2021/08/22 05:18:45;;;;;;;41.38;31.95;;;17.80;99.90;;;;;;4858595;29;20140;-81
2021/08/22 05:21:11;;;;;;;37.42;31.27;;;17.80;99.90;;;;;;4858684;29;20037;-80
2021/08/22 05:23:38;;;;;;;42.13;32.75;;;17.70;99.90;;;;;;4858775;29;20045;-81
2021/08/22 05:26:03;;;;;;;44.42;32.88;;;17.70;99.90;;;;;;4858670;29;20057;-81
2021/08/22 05:28:29;;;;;;;41.40;31.55;;;17.70;99.90;;;;;;4858036;29;20460;-80
2021/08/22 05:30:55;;;;;;;42.33;31.25;;;17.70;99.90;;;;;;4848413;29;20046;-81
2021/08/22 05:33:21;;;;;;;36.45;30.75;;;17.70;99.90;;;;;;4860447;29;20046;-81
2021/08/22 05:35:47;;;;;;;43.15;33.22;;;17.70;99.90;;;;;;4846866;29;20045;-81
2021/08/22 05:38:13;;;;;;;41.60;33.67;;;17.60;99.90;;;;;;4859652;29;20045;-81
2021/08/22 05:40:39;;;;;;;42.53;32.05;;;17.60;99.90;;;;;;4846759;29;20117;-87
2021/08/22 05:43:05;;;;;;;42.13;32.65;;;17.60;99.90;;;;;;4877478;29;20045;-87
2021/08/22 05:45:31;;;;;;;48.15;31.83;;;17.60;99.90;;;;;;4852556;29;20052;-85
2021/08/22 05:47:57;;;;;;;41.22;32.08;;;17.70;99.90;;;;;;4862111;29;20490;-84
2021/08/22 05:50:23;;;;;;;43.00;32.55;;;17.60;99.90;;;;;;4861360;29;20037;-84
2021/08/22 05:52:49;;;;;;;41.47;31.50;;;17.60;99.90;;;;;;4846231;29;20037;-85
2021/08/22 05:55:15;;;;;;;39.63;29.65;;;17.60;99.90;;;;;;4861809;29;20045;-85
2021/08/22 05:57:41;;;;;;;42.60;31.70;;;17.60;99.90;;;;;;4862816;29;20452;-85
2021/08/22 06:00:08;;;;;;;40.95;29.98;;;17.60;99.90;;;;;;4861115;29;20108;-85
2021/08/22 06:02:36;;;;;;;39.63;30.63;;;17.60;99.90;;;;;;4846133;29;20069;-85
2021/08/22 06:05:07;;;;;;;41.67;31.95;;;17.60;99.90;;;;;;4875995;29;20124;-86
2021/08/22 06:07:33;;;;;;;42.42;31.50;;;17.60;99.90;;;;;;4861819;29;20052;-85
2021/08/22 06:09:59;;;;;;;44.15;32.42;;;17.60;99.90;;;;;;4861524;29;20402;-85
2021/08/22 06:12:26;;;;;;;45.78;30.75;;;17.60;99.90;;;;;;4862471;29;20509;-85
2021/08/22 06:14:52;;;;;;;58.92;32.78;;;17.60;99.90;;;;;;4866358;29;20053;-84
2021/08/22 06:17:25;;;;;;;47.33;32.20;;;17.90;99.90;;;;;;4882591;29;20052;-85
2021/08/22 06:19:58;;;;;;;42.55;31.30;;;17.50;99.90;;;;;;4881517;29;20318;-85
2021/08/22 06:22:27;;;;;;;41.83;32.20;;;17.50;99.90;;;;;;4851592;29;20045;-85
2021/08/22 06:24:55;;;;;;;45.00;31.77;;;17.40;99.90;;;;;;4856398;29;20139;-86
2021/08/22 06:27:21;;;;;;;40.83;29.75;;;17.50;99.90;;;;;;4881676;29;20121;-85
2021/08/22 06:29:47;;;;;;;39.40;30.83;;;17.40;99.90;;;;;;4852231;29;20041;-85
2021/08/22 06:32:13;;;;;;;36.53;30.27;;;17.50;99.90;;;;;;4874452;29;20052;-85
2021/08/22 06:34:39;;;;;;;41.00;30.73;;;17.50;99.90;;;;;;4866442;29;20044;-85
2021/08/22 06:37:04;;;;;;;38.95;31.40;;;17.50;99.90;;;;;;4855428;29;20069;-85
2021/08/22 06:39:31;;;;;;;35.55;28.70;;;17.50;99.90;;;;;;4850929;29;20124;-85
2021/08/22 06:42:00;;;;;;;37.55;29.60;;;17.50;99.90;;;;;;4846025;29;20089;-85
2021/08/22 06:44:29;;;;;;;33.28;27.92;;;17.50;99.90;;;;;;4846854;29;20097;-85
2021/08/22 06:46:54;;;;;;;37.15;27.30;;;17.50;99.90;;;;;;4862293;29;20080;-85
2021/08/22 06:49:20;;;;;;;29.17;25.08;;;17.50;99.90;;;;;;4855148;29;20061;-85
2021/08/22 06:51:46;;;;;;;29.58;23.90;;;17.50;99.90;;;;;;4857677;29;20045;-85
2021/08/22 06:54:12;;;;;;;29.60;23.63;;;17.40;99.90;;;;;;4846793;29;20053;-86
2021/08/22 06:56:38;;;;;;;27.65;22.95;;;17.40;99.90;;;;;;4861245;29;20558;-87
2021/08/22 06:59:03;;;;;;;26.48;21.33;;;17.30;99.90;;;;;;4846949;29;20493;-86
2021/08/22 07:01:29;;;;;;;26.92;21.00;;;17.30;99.90;;;;;;4891161;29;20041;-86
2021/08/22 07:03:55;;;;;;;23.55;20.08;;;17.30;99.90;;;;;;4878074;29;20098;-87
2021/08/22 07:06:21;;;;;;;26.23;20.02;;;17.30;99.90;;;;;;4854516;29;20493;-87
2021/08/22 07:08:47;;;;;;;23.33;18.85;;;17.30;99.90;;;;;;4875970;29;20076;-87
2021/08/22 07:11:14;;;;;;;19.70;17.48;;;17.30;99.90;;;;;;4852426;29;20457;-87
2021/08/22 07:13:40;;;;;;;22.88;17.08;;;17.30;99.90;;;;;;4888987;29;20037;-87
2021/08/22 07:16:07;;;;;;;21.15;17.15;;;17.30;99.90;;;;;;4848924;29;20042;-87
2021/08/22 07:18:36;;;;;;;23.33;17.27;;;17.20;99.90;;;;;;4861760;29;20101;-87
2021/08/22 07:21:04;;;;;;;23.25;18.00;;;17.30;99.90;;;;;;4861590;29;20042;-85
2021/08/22 07:23:30;;;;;;;21.88;16.85;;;17.30;99.90;;;;;;4861270;29;20037;-85
2021/08/22 07:25:59;;;;;;;20.42;17.45;;;17.30;99.90;;;;;;4865755;29;20047;-87
2021/08/22 07:28:27;;;;;;;18.95;16.42;;;17.30;99.90;;;;;;4850067;29;20041;-82
2021/08/22 07:30:55;;;;;;;20.23;17.33;;;17.30;99.90;;;;;;4863253;29;20046;-83
2021/08/22 07:33:21;;;;;;;22.15;18.85;;;17.30;99.90;;;;;;4864614;29;20053;-86
2021/08/22 07:35:47;;;;;;;22.73;19.05;;;17.30;99.90;;;;;;4861763;29;20045;-85
2021/08/22 07:38:14;;;;;;;23.50;19.15;;;17.30;99.90;;;;;;4858364;29;20048;-85
2021/08/22 07:40:40;;;;;;;26.13;18.70;;;17.30;99.90;;;;;;4860499;29;20037;-86
2021/08/22 07:43:06;;;;;;;22.10;18.35;;;17.30;99.90;;;;;;4842700;29;20038;-86
2021/08/22 07:45:31;;;;;;;20.88;17.52;;;17.30;99.90;;;;;;4867934;29;20085;-86
2021/08/22 07:47:57;;;;;;;23.83;18.33;;;17.30;99.90;;;;;;4846257;29;20120;-87
2021/08/22 07:50:41;;;;;;;20.70;16.95;;;17.30;99.90;;;;;;4829741;29;20041;-87
2021/08/22 07:53:09;;;;;;;20.75;17.35;;;17.30;99.90;;;;;;4843805;29;20053;-87
2021/08/22 07:55:36;;;;;;;23.48;17.88;;;17.30;99.90;;;;;;4855846;29;20475;-87
2021/08/22 07:58:02;;;;;;;22.33;17.25;;;17.30;99.90;;;;;;4859078;29;20097;-87
2021/08/22 08:00:28;;;;;;;20.00;16.65;;;17.30;99.90;;;;;;4863605;29;20044;-88
2021/08/22 08:02:53;;;;;;;19.52;15.70;;;17.30;99.90;;;;;;4854907;29;20037;-87
2021/08/22 08:05:19;;;;;;;20.17;15.60;;;17.30;99.90;;;;;;4850161;29;20048;-87
2021/08/22 08:07:45;;;;;;;17.75;14.85;;;17.30;99.90;;;;;;4864928;29;20048;-87
2021/08/22 08:10:13;;;;;;;19.55;15.18;;;17.30;99.90;;;;;;4850654;29;20509;-87
2021/08/22 08:12:39;;;;;;;17.65;13.75;;;17.20;99.90;;;;;;4846837;29;20044;-87
2021/08/22 08:15:06;;;;;;;17.58;14.43;;;17.20;99.90;;;;;;4868619;29;20057;-87
2021/08/22 08:17:33;;;;;;;21.13;14.57;;;17.20;99.90;;;;;;4849805;29;20435;-87
2021/08/22 08:20:02;;;;;;;17.80;13.13;;;17.20;99.90;;;;;;4846705;29;20052;-89
2021/08/22 08:22:28;;;;;;;21.40;14.25;;;17.20;99.90;;;;;;4850519;29;20065;-90
2021/08/22 08:24:54;;;;;;;23.88;13.73;;;17.20;99.90;;;;;;4833283;29;20033;-81
2021/08/22 08:27:22;;;;;;;17.63;12.75;;;17.10;99.90;;;;;;4872722;29;20076;-81
2021/08/22 08:29:48;;;;;;;17.80;12.68;;;17.10;99.90;;;;;;4849957;29;20421;-81
2021/08/22 08:32:14;;;;;;;17.05;11.77;;;17.10;99.90;;;;;;4863819;29;20508;-84
2021/08/22 08:34:40;;;;;;;17.85;12.05;;;17.10;99.90;;;;;;4869837;29;20042;-84
2021/08/22 08:37:06;;;;;;;16.08;11.13;;;17.10;99.90;;;;;;4866940;29;20045;-84
2021/08/22 08:39:31;;;;;;;14.52;10.75;;;17.10;99.90;;;;;;4854456;29;20065;-85
2021/08/22 08:42:19;;;;;;;17.67;12.00;;;17.10;99.90;;;;;;4857031;29;20094;-85
2021/08/22 08:44:57;;;;;;;13.85;11.10;;;17.10;99.90;;;;;;4865202;29;20068;-84
2021/08/22 08:47:31;;;;;;;13.33;11.33;;;17.10;99.90;;;;;;4877340;29;20033;-84
2021/08/22 08:50:02;;;;;;;11.95;10.73;;;17.10;99.90;;;;;;4845065;29;20583;-84
2021/08/22 08:52:34;;;;;;;14.93;11.32;;;17.20;99.90;;;;;;4877681;29;20041;-83
2021/08/22 08:55:11;;;;;;;15.68;11.30;;;17.20;99.90;;;;;;4859207;29;20056;-75
2021/08/22 08:57:37;;;;;;;12.68;10.65;;;17.20;99.90;;;;;;4867498;29;20033;-75
2021/08/22 09:00:07;;;;;;;13.93;11.85;;;17.20;99.90;;;;;;4870000;29;20038;-76
2021/08/22 09:02:33;;;;;;;14.75;11.80;;;17.20;99.90;;;;;;4863005;29;20176;-76
2021/08/22 09:05:02;;;;;;;15.35;12.15;;;17.30;99.90;;;;;;4865581;29;20116;-75
2021/08/22 09:07:36;;;;;;;13.00;11.10;;;17.30;99.90;;;;;;4874179;29;20041;-80
2021/08/22 09:10:33;;;;;;;14.67;11.50;;;17.30;99.90;;;;;;4858148;29;20050;-81
2021/08/22 09:13:40;;;;;;;13.52;11.10;;;17.30;99.90;;;;;;4839779;29;20335;-81
2021/08/22 09:16:27;;;;;;;12.48;10.18;;;17.50;99.90;;;;;;4856018;29;20082;-79
2021/08/22 09:19:42;;;;;;;13.70;10.85;;;17.30;99.90;;;;;;4841789;29;20053;-86
2021/08/22 09:22:36;;;;;;;12.35;10.65;;;17.40;99.90;;;;;;4869159;29;20042;-86
2021/08/22 09:25:39;;;;;;;13.57;11.52;;;17.40;99.90;;;;;;4857301;29;20435;-86
2021/08/22 09:28:24;;;;;;;14.63;12.40;;;17.40;99.90;;;;;;4839326;29;20041;-86
2021/08/22 09:31:28;;;;;;;15.10;12.43;;;17.50;99.90;;;;;;4857811;29;20059;-86
2021/08/22 09:34:31;;;;;;;18.13;12.70;;;17.50;99.90;;;;;;4871016;29;20041;-86
2021/08/22 09:37:09;;;;;;;18.30;13.65;;;17.60;99.90;;;;;;4855976;29;20521;-85
2021/08/22 09:40:14;;;;;;;21.15;15.70;;;17.60;99.90;;;;;;4857523;29;20120;-86
2021/08/22 09:43:17;;;;;;;19.83;14.65;;;17.70;99.90;;;;;;4856155;29;20049;-85
2021/08/22 09:46:07;;;;;;;21.40;15.95;;;17.80;99.90;;;;;;4854532;29;20399;-86
2021/08/22 09:48:58;;;;;;;20.70;15.18;;;18.00;99.90;;;;;;4856481;29;20042;-80
2021/08/22 09:51:48;;;;;;;21.25;16.25;;;18.10;99.90;;;;;;4855723;29;20044;-83
2021/08/22 09:54:35;;;;;;;20.02;15.18;;;18.20;99.90;;;;;;4859448;29;20069;-84
2021/08/22 09:57:19;;;;;;;20.83;16.13;;;18.30;99.90;;;;;;4862917;29;20040;-84
2021/08/22 10:00:19;;;;;;;20.27;16.27;;;18.40;99.90;;;;;;4862200;29;20042;-84
2021/08/22 10:03:19;;;;;;;20.00;16.13;;;18.40;99.90;;;;;;4858105;29;20065;-83
2021/08/22 10:05:59;;;;;;;21.67;16.13;;;18.40;99.90;;;;;;4859642;29;20069;-82
2021/08/22 10:08:37;;;;;;;23.40;16.73;;;18.30;99.90;;;;;;4857315;29;20058;-84
2021/08/22 10:11:03;;;;;;;22.95;17.67;;;18.30;99.90;;;;;;4864433;29;20053;-83
2021/08/22 10:13:30;;;;;;;22.67;17.27;;;18.20;99.90;;;;;;4848176;29;20045;-85
2021/08/22 10:15:56;;;;;;;23.95;18.35;;;18.20;99.90;;;;;;4850918;29;20069;-84
2021/08/22 10:18:26;;;;;;;24.30;18.42;;;18.20;99.90;;;;;;4862398;29;20135;-83
2021/08/22 10:20:59;;;;;;;24.80;19.00;;;18.20;99.90;;;;;;4861379;29;20069;-83
2021/08/22 10:23:43;;;;;;;25.48;19.33;;;18.10;99.90;;;;;;4854872;29;20481;-84
2021/08/22 10:26:10;;;;;;;30.88;20.35;;;18.20;99.90;;;;;;4857375;29;20042;-83
2021/08/22 10:28:49;;;;;;;24.60;18.60;;;18.20;99.90;;;;;;4860707;29;20048;-83
2021/08/22 10:31:52;;;;;;;31.23;22.63;;;18.20;99.90;;;;;;4861325;29;20557;-83
2021/08/22 10:34:22;;;;;;;32.58;23.60;;;18.20;99.90;;;;;;4855054;29;20041;-83
2021/08/22 10:36:49;;;;;;;33.80;24.50;;;18.30;99.90;;;;;;4859431;29;20169;-83
2021/08/22 10:39:27;;;;;;;32.17;24.63;;;18.30;99.90;;;;;;4856105;29;20501;-84
2021/08/22 10:42:14;;;;;;;37.90;26.48;;;18.40;99.90;;;;;;4856775;29;20096;-84
2021/08/22 10:44:40;;;;;;;37.15;25.90;;;18.40;99.90;;;;;;4850815;29;20081;-85
2021/08/22 10:47:33;;;;;;;40.42;26.17;;;18.50;99.90;;;;;;4862240;29;20398;-86
2021/08/22 10:50:00;;;;;;;30.65;20.27;;;18.50;99.90;;;;;;4862696;29;20125;-84
2021/08/22 10:52:29;;;;;;;27.77;18.45;;;18.50;99.90;;;;;;4861902;29;20065;-84
2021/08/22 10:55:11;;;;;;;14.43;11.27;;;18.50;99.90;;;;;;4875821;29;20084;-84
2021/08/22 10:57:45;;;;;;;11.13;9.27;;;18.50;99.90;;;;;;4881128;29;20056;-84
2021/08/22 11:00:37;;;;;;;9.63;8.60;;;18.50;99.90;;;;;;4865193;29;20097;-84
2021/08/22 11:03:19;;;;;;;8.73;7.80;;;18.50;99.90;;;;;;4856355;29;20030;-83
2021/08/22 11:05:46;;;;;;;10.95;8.77;;;18.50;99.90;;;;;;4854612;29;20041;-84
2021/08/22 11:08:24;;;;;;;10.80;8.88;;;18.50;99.90;;;;;;4858679;29;20491;-84
2021/08/22 11:11:00;;;;;;;9.63;8.32;;;18.60;99.90;;;;;;4858812;29;20042;-84
2021/08/22 11:13:33;;;;;;;10.65;8.77;;;18.60;99.90;;;;;;4863733;29;20048;-85
2021/08/22 11:16:04;;;;;;;11.25;8.85;;;18.60;99.90;;;;;;4874486;29;20503;-83
2021/08/22 11:18:37;;;;;;;10.45;8.73;;;18.70;99.90;;;;;;4872717;29;20052;-83
2021/08/22 11:21:05;;;;;;;13.15;8.90;;;18.70;99.90;;;;;;4849488;29;20034;-83
2021/08/22 11:23:57;;;;;;;11.10;8.63;;;18.80;99.90;;;;;;4841986;29;20683;-82
2021/08/22 11:26:23;;;;;;;9.90;8.70;;;18.90;99.90;;;;;;4865517;29;20394;-82
2021/08/22 11:29:01;;;;;;;10.73;8.15;;;18.90;99.90;;;;;;4863057;29;20080;-83
2021/08/22 11:31:37;;;;;;;9.40;8.00;;;19.00;99.90;;;;;;4852370;29;20044;-83
2021/08/22 11:34:14;;;;;;;8.45;6.78;;;19.20;99.90;;;;;;4875728;29;20053;-83
2021/08/22 11:36:43;;;;;;;10.55;8.50;;;19.20;99.90;;;;;;4858505;29;20049;-83
2021/08/22 11:39:16;;;;;;;9.35;8.43;;;19.20;99.90;;;;;;4859056;29;20045;-82
2021/08/22 11:41:58;;;;;;;10.23;8.57;;;19.10;99.90;;;;;;4861648;29;20449;-84
2021/08/22 11:44:26;;;;;;;10.07;7.38;;;19.10;99.90;;;;;;4852182;29;20053;-83
2021/08/22 11:47:07;;;;;;;11.82;8.98;;;18.90;99.90;;;;;;4855894;29;20045;-82
2021/08/22 11:49:33;;;;;;;20.50;10.18;;;19.00;99.90;;;;;;4849819;29;20489;-81
2021/08/22 11:52:32;;;;;;;15.88;10.60;;;18.90;99.90;;;;;;4860291;29;20132;-81
2021/08/22 11:55:08;;;;;;;15.98;9.25;;;19.20;99.90;;;;;;4843166;29;20052;-81
2021/08/22 11:57:40;;;;;;;14.65;9.30;;;18.60;99.90;;;;;;4825921;29;20041;-81
2021/08/22 12:00:15;;;;;;;10.75;8.63;;;18.70;99.90;;;;;;4844544;29;20048;-81
2021/08/22 12:03:22;;;;;;;8.85;7.35;;;18.70;99.90;;;;;;4858733;29;20046;-81
2021/08/22 12:06:09;;;;;;;12.57;7.97;;;18.60;99.90;;;;;;4805247;29;20133;-83
2021/08/22 12:08:47;;;;;;;11.88;8.30;;;18.60;99.90;;;;;;4840443;29;20465;-82
2021/08/22 12:11:17;;;;;;;8.13;6.75;;;18.60;99.90;;;;;;4842607;29;20053;-80
2021/08/22 12:13:44;;;;;;;6.20;5.20;;;18.70;99.90;;;;;;4853670;29;20548;-80
2021/08/22 12:16:26;;;;;;;7.75;5.63;;;18.60;99.90;;;;;;4849992;29;20137;-80
2021/08/22 12:18:54;;;;;;;11.50;6.47;;;18.70;99.90;;;;;;4851406;29;20085;-80
2021/08/22 12:21:22;;;;;;;7.22;5.47;;;18.70;99.90;;;;;;4851867;29;20406;-80
2021/08/22 12:23:50;;;;;;;10.00;6.53;;;18.70;99.90;;;;;;4852030;29;20500;-80
2021/08/22 12:26:26;;;;;;;9.85;6.22;;;18.80;99.90;;;;;;4852976;29;20099;-80
2021/08/22 12:29:17;;;;;;;8.30;5.40;;;18.80;99.90;;;;;;4850915;29;20056;-80
2021/08/22 12:31:43;;;;;;;5.95;5.18;;;18.80;99.90;;;;;;4855474;29;20474;-79
2021/08/22 12:34:11;;;;;;;7.72;5.68;;;18.80;99.90;;;;;;4865476;29;20508;-79
2021/08/22 12:36:38;;;;;;;8.27;6.10;;;18.90;99.90;;;;;;4872483;29;20124;-79
2021/08/22 12:39:06;;;;;;;5.93;4.75;;;18.90;99.90;;;;;;4860467;29;20049;-79
2021/08/22 12:41:46;;;;;;;6.35;4.85;;;18.90;99.90;;;;;;4858589;29;20124;-79
2021/08/22 12:44:26;;;;;;;6.55;5.40;;;18.90;99.90;;;;;;4860456;29;20046;-80
2021/08/22 12:47:01;;;;;;;4.10;3.58;;;19.00;99.90;;;;;;4862404;29;20033;-81
2021/08/22 12:49:34;;;;;;;5.10;4.60;;;19.00;99.90;;;;;;4859232;29;20510;-81